Time;durP1;ratioP1;P1;durP2;ratioP2;P2;SDS_P1;SDS_P2;PMS_P1;PMS_P2;Temp;Humidity;BMP_temperature;BMP_pressure;BME280_temperature;BME280_humidity;BME280_pressure;Samples;Min_cycle;Max_cycle;Signal;HPM_P1;HPM_P2
2023/10/27 00:00:52;;;;;;;2.67;1.13;;;19.50;84.20;;;;;;5990134;22;46008;-61
2023/10/27 00:03:19;;;;;;;2.40;1.38;;;19.40;85.00;;;;;;5993538;22;45393;-60
2023/10/27 00:05:58;;;;;;;1.92;1.20;;;19.50;84.10;;;;;;5982011;22;45316;-60
2023/10/27 00:08:49;;;;;;;2.85;1.00;;;19.50;84.10;;;;;;5982980;22;45304;-60
2023/10/27 00:11:37;;;;;;;1.23;1.00;;;19.50;84.00;;;;;;5984280;22;46383;-60
2023/10/27 00:14:15;;;;;;;2.40;1.00;;;19.40;83.90;;;;;;6007375;22;45119;-61
2023/10/27 00:17:12;;;;;;;2.40;1.08;;;19.50;84.00;;;;;;6007356;22;45092;-60
2023/10/27 00:20:43;;;;;;;2.45;1.10;;;19.40;83.80;;;;;;5973359;22;45023;-60
2023/10/27 00:23:23;;;;;;;2.15;1.08;;;19.40;83.80;;;;;;5980614;22;46511;-60
2023/10/27 00:25:54;;;;;;;1.73;1.10;;;19.40;83.80;;;;;;5999839;22;44849;-60
2023/10/27 00:31:02;;;;;;;3.45;0.90;;;19.40;83.80;;;;;;5967210;22;45196;-60
2023/10/27 00:33:31;;;;;;;1.02;0.75;;;19.40;83.80;;;;;;5980875;22;46312;-60
2023/10/27 00:36:20;;;;;;;1.85;0.75;;;19.40;83.80;;;;;;5998883;22;44804;-60
2023/10/27 00:39:03;;;;;;;2.88;0.90;;;19.40;83.60;;;;;;5978226;22;45140;-60
2023/10/27 00:41:30;;;;;;;2.60;1.40;;;19.40;83.60;;;;;;5980528;22;45056;-60
2023/10/27 00:47:41;;;;;;;1.98;1.05;;;19.40;83.50;;;;;;5943871;22;45373;-60
2023/10/27 00:50:37;;;;;;;2.15;1.00;;;19.40;83.50;;;;;;5977266;22;44793;-60
2023/10/27 00:53:06;;;;;;;1.67;1.00;;;19.40;83.40;;;;;;6015256;22;45115;-60
2023/10/27 00:56:04;;;;;;;1.85;0.95;;;19.40;83.30;;;;;;6005418;22;45568;-61
2023/10/27 00:58:32;;;;;;;4.25;1.10;;;19.40;83.30;;;;;;5991460;22;45375;-61
2023/10/27 01:01:22;;;;;;;2.25;0.90;;;19.40;83.30;;;;;;5986799;22;45184;-61
2023/10/27 01:04:11;;;;;;;3.08;1.20;;;19.40;83.10;;;;;;5983060;22;45004;-61
2023/10/27 01:07:15;;;;;;;2.63;0.98;;;19.50;83.10;;;;;;6004516;22;46277;-61
2023/10/27 01:10:05;;;;;;;2.28;1.13;;;19.40;83.10;;;;;;5982389;22;44957;-61
2023/10/27 01:12:33;;;;;;;2.20;0.77;;;19.40;83.10;;;;;;6001064;22;45194;-61
2023/10/27 01:15:30;;;;;;;3.58;0.80;;;19.40;83.00;;;;;;6013001;22;45210;-61
2023/10/27 01:18:13;;;;;;;2.80;0.98;;;19.40;82.90;;;;;;5964104;22;47182;-61
2023/10/27 01:21:09;;;;;;;1.23;0.85;;;19.40;82.80;;;;;;6020644;22;45202;-61
2023/10/27 01:23:39;;;;;;;2.28;1.00;;;19.40;82.70;;;;;;5998220;22;44868;-61
2023/10/27 01:26:25;;;;;;;1.63;0.88;;;19.40;82.60;;;;;;5996754;22;45045;-61
2023/10/27 01:29:10;;;;;;;3.17;1.00;;;19.40;82.50;;;;;;6000168;22;47251;-61
2023/10/27 01:31:37;;;;;;;2.03;0.95;;;19.40;82.50;;;;;;5986474;22;45311;-61
2023/10/27 01:34:04;;;;;;;2.42;1.10;;;19.40;82.40;;;;;;5975675;22;44869;-61
2023/10/27 01:36:31;;;;;;;1.55;0.73;;;19.40;82.30;;;;;;5995514;22;45111;-61
2023/10/27 01:39:31;;;;;;;2.40;0.90;;;19.40;82.30;;;;;;5968561;22;46383;-60
2023/10/27 01:42:22;;;;;;;2.25;0.75;;;19.40;82.20;;;;;;5988739;22;45242;-60
2023/10/27 01:48:11;;;;;;;2.78;0.80;;;19.40;81.90;;;;;;5971471;22;45154;-61
2023/10/27 01:50:42;;;;;;;4.25;1.05;;;19.40;82.10;;;;;;5993000;22;46029;-61
2023/10/27 01:53:35;;;;;;;2.05;0.90;;;19.40;82.10;;;;;;6008488;22;45115;-60
2023/10/27 01:56:03;;;;;;;3.15;1.10;;;19.40;82.10;;;;;;5991784;22;45089;-60
2023/10/27 01:58:30;;;;;;;3.72;1.10;;;19.40;82.10;;;;;;5994653;22;45059;-61
2023/10/27 02:01:10;;;;;;;2.60;0.80;;;19.40;82.00;;;;;;5986449;22;46416;-61
2023/10/27 02:06:39;;;;;;;4.45;0.90;;;19.40;81.90;;;;;;5978633;22;45130;-62
2023/10/27 02:09:06;;;;;;;5.05;1.10;;;19.40;81.90;;;;;;5948267;22;45072;-61
2023/10/27 02:11:47;;;;;;;1.92;0.70;;;19.40;82.00;;;;;;5955304;22;46478;-61
2023/10/27 02:14:37;;;;;;;3.22;0.80;;;19.40;81.90;;;;;;5979496;22;45041;-61
2023/10/27 02:17:04;;;;;;;3.20;0.70;;;19.40;81.90;;;;;;5947604;22;45359;-60
2023/10/27 02:19:31;;;;;;;2.22;1.00;;;19.40;82.00;;;;;;5964259;22;45363;-61
2023/10/27 02:22:17;;;;;;;3.53;0.80;;;19.40;82.10;;;;;;5960138;22;45769;-61
2023/10/27 02:24:56;;;;;;;2.22;0.80;;;19.40;82.10;;;;;;5974886;22;45086;-60
2023/10/27 02:27:38;;;;;;;1.88;0.80;;;19.40;82.10;;;;;;5959880;22;45209;-60
2023/10/27 02:30:28;;;;;;;2.33;0.90;;;19.40;82.10;;;;;;5952011;22;45202;-60
2023/10/27 02:32:54;;;;;;;1.23;0.80;;;19.40;82.00;;;;;;5959403;22;46253;-61
2023/10/27 02:35:22;;;;;;;4.80;0.95;;;19.40;81.70;;;;;;5955276;22;45124;-61
2023/10/27 02:38:14;;;;;;;2.13;0.88;;;19.40;81.30;;;;;;5949749;22;45289;-61
2023/10/27 02:40:41;;;;;;;3.38;0.75;;;19.30;80.30;;;;;;5948772;22;45284;-61
2023/10/27 02:43:23;;;;;;;3.38;0.75;;;19.30;79.50;;;;;;5953505;22;47189;-61
2023/10/27 02:46:12;;;;;;;2.10;0.80;;;19.30;78.40;;;;;;5955113;22;45791;-61
2023/10/27 02:48:41;;;;;;;2.80;0.70;;;19.30;77.70;;;;;;5948355;22;45029;-61
2023/10/27 02:51:31;;;;;;;2.03;0.70;;;19.30;76.70;;;;;;5988346;22;45050;-60
2023/10/27 02:54:00;;;;;;;2.17;0.73;;;19.30;77.70;;;;;;5962178;22;46148;-59
2023/10/27 02:56:26;;;;;;;3.55;1.00;;;19.30;77.70;;;;;;5971959;22;45130;-59
2023/10/27 02:59:31;;;;;;;3.60;0.77;;;19.30;78.20;;;;;;5985304;22;45195;-59
2023/10/27 03:02:18;;;;;;;2.35;0.75;;;19.30;78.60;;;;;;5973868;22;45048;-59
2023/10/27 03:04:56;;;;;;;2.65;0.80;;;19.30;78.70;;;;;;5953279;22;46678;-59
2023/10/27 03:07:37;;;;;;;3.42;0.63;;;19.30;79.10;;;;;;5932236;22;45303;-60
2023/10/27 03:10:25;;;;;;;1.35;0.60;;;19.30;79.20;;;;;;5982874;22;45299;-60
2023/10/27 03:12:53;;;;;;;5.07;1.30;;;19.30;79.40;;;;;;5961267;22;45095;-60
2023/10/27 03:15:51;;;;;;;3.30;1.10;;;19.40;79.70;;;;;;5963760;22;47129;-60
2023/10/27 03:18:38;;;;;;;2.15;0.85;;;19.40;79.80;;;;;;5974406;22;45414;-60
2023/10/27 03:21:29;;;;;;;3.42;1.02;;;19.40;79.90;;;;;;5954330;22;45330;-60
2023/10/27 03:24:12;;;;;;;2.55;0.90;;;19.40;80.00;;;;;;5961520;22;45160;-60
2023/10/27 03:26:40;;;;;;;4.30;0.95;;;19.40;80.00;;;;;;5968800;22;47178;-60
2023/10/27 03:29:11;;;;;;;2.38;0.88;;;19.40;80.10;;;;;;5960800;22;45853;-61
2023/10/27 03:31:41;;;;;;;3.58;0.93;;;19.40;80.10;;;;;;5945249;22;45199;-61
2023/10/27 03:34:12;;;;;;;4.32;0.93;;;19.40;80.30;;;;;;5936552;22;45487;-60
2023/10/27 03:36:44;;;;;;;2.42;0.75;;;19.40;80.30;;;;;;5974230;22;47419;-60
2023/10/27 03:39:44;;;;;;;1.92;0.80;;;19.40;80.50;;;;;;5970129;22;45202;-60
2023/10/27 03:42:11;;;;;;;2.70;1.02;;;19.40;80.50;;;;;;5972970;22;45327;-60
2023/10/27 03:45:05;;;;;;;3.65;0.90;;;19.40;80.60;;;;;;5951348;22;44776;-60
2023/10/27 03:48:02;;;;;;;1.67;0.90;;;19.40;80.70;;;;;;5993472;22;46360;-60
2023/10/27 03:50:30;;;;;;;2.22;0.82;;;19.40;80.70;;;;;;5954984;22;45123;-60
2023/10/27 03:52:57;;;;;;;4.68;0.85;;;19.40;81.00;;;;;;5953495;22;45091;-60
2023/10/27 03:55:23;;;;;;;1.60;0.70;;;19.40;81.00;;;;;;5954047;22;45142;-60
2023/10/27 03:58:20;;;;;;;2.65;0.77;;;19.40;81.20;;;;;;5954876;22;46296;-60
2023/10/27 04:01:09;;;;;;;2.33;0.70;;;19.40;81.10;;;;;;5963105;22;45177;-60
2023/10/27 04:03:45;;;;;;;1.65;0.80;;;19.40;81.20;;;;;;5954286;22;45183;-60
2023/10/27 04:06:12;;;;;;;2.78;1.13;;;19.40;81.10;;;;;;5971431;22;45118;-60
2023/10/27 04:09:00;;;;;;;2.85;0.95;;;19.40;81.00;;;;;;5958122;22;47661;-60
2023/10/27 04:11:27;;;;;;;3.33;0.90;;;19.40;81.00;;;;;;5966638;22;45220;-60
2023/10/27 04:13:54;;;;;;;2.88;0.82;;;19.40;81.00;;;;;;5951795;22;45110;-61
2023/10/27 04:20:14;;;;;;;2.50;0.93;;;19.40;80.80;;;;;;5936762;22;45525;-61
2023/10/27 04:22:43;;;;;;;3.28;1.20;;;19.40;80.90;;;;;;5963965;22;45335;-60
2023/10/27 04:25:39;;;;;;;2.25;0.77;;;19.40;81.00;;;;;;5978021;22;45263;-58
2023/10/27 04:28:07;;;;;;;3.40;0.90;;;19.30;80.90;;;;;;5932257;22;45212;-57
2023/10/27 04:30:36;;;;;;;2.80;0.95;;;19.40;80.90;;;;;;5966913;22;45930;-57
2023/10/27 04:33:17;;;;;;;2.00;0.80;;;19.30;81.70;;;;;;5932711;22;45385;-57
2023/10/27 04:35:46;;;;;;;1.80;0.70;;;19.40;82.40;;;;;;5932290;22;45260;-58
2023/10/27 04:38:14;;;;;;;2.53;0.75;;;19.40;82.80;;;;;;5926630;22;45257;-58
2023/10/27 04:41:14;;;;;;;2.35;0.80;;;19.40;82.80;;;;;;5954647;22;45577;-58
2023/10/27 04:44:22;;;;;;;2.85;1.08;;;19.40;82.90;;;;;;5960917;22;45047;-58
2023/10/27 04:47:03;;;;;;;7.15;1.27;;;19.40;82.80;;;;;;5925052;22;45537;-58
2023/10/27 04:49:53;;;;;;;1.40;0.77;;;19.40;82.80;;;;;;5953928;22;45099;-56
2023/10/27 04:52:36;;;;;;;3.80;0.70;;;19.50;82.50;;;;;;5971224;22;45528;-58
2023/10/27 04:55:16;;;;;;;1.60;0.80;;;19.50;82.30;;;;;;5948462;22;45154;-56
2023/10/27 04:57:57;;;;;;;2.10;0.90;;;19.50;82.30;;;;;;5953830;22;45169;-59
2023/10/27 05:00:24;;;;;;;2.65;0.80;;;19.60;82.10;;;;;;5958102;22;45315;-57
2023/10/27 05:03:07;;;;;;;2.47;0.70;;;19.60;81.90;;;;;;5960238;22;45341;-56
2023/10/27 05:05:34;;;;;;;2.35;0.60;;;19.60;81.80;;;;;;5951162;22;45222;-56
2023/10/27 05:08:03;;;;;;;1.63;0.68;;;19.60;81.70;;;;;;5957608;22;45685;-57
2023/10/27 05:10:54;;;;;;;1.63;0.65;;;19.60;81.60;;;;;;5943103;22;45363;-58
2023/10/27 05:13:36;;;;;;;2.63;0.63;;;19.60;81.70;;;;;;5945239;22;46289;-58
2023/10/27 05:16:34;;;;;;;1.40;0.50;;;19.60;81.80;;;;;;5970167;22;45276;-58
2023/10/27 05:22:52;;;;;;;1.33;0.52;;;19.60;81.90;;;;;;5922880;22;45334;-58
2023/10/27 05:25:29;;;;;;;3.22;0.60;;;19.60;81.90;;;;;;5966737;22;45527;-58
2023/10/27 05:28:23;;;;;;;0.98;0.60;;;19.60;81.90;;;;;;5984207;22;45348;-58
2023/10/27 05:31:42;;;;;;;1.52;0.63;;;19.60;82.00;;;;;;5975943;22;45145;-58
2023/10/27 05:34:09;;;;;;;2.47;0.60;;;19.60;82.00;;;;;;5940112;22;45103;-58
2023/10/27 05:36:37;;;;;;;3.35;0.98;;;19.60;82.10;;;;;;5957661;22;46474;-58
2023/10/27 05:39:05;;;;;;;2.13;0.70;;;19.60;82.10;;;;;;5975213;22;45136;-58
2023/10/27 05:42:15;;;;;;;2.58;0.75;;;19.60;82.10;;;;;;5979590;22;45550;-59
2023/10/27 05:45:06;;;;;;;1.20;0.60;;;19.60;82.20;;;;;;5976977;22;45407;-58
2023/10/27 05:47:34;;;;;;;1.98;0.60;;;19.60;82.30;;;;;;5960601;22;46467;-59
2023/10/27 05:53:59;;;;;;;2.03;0.80;;;19.50;82.30;;;;;;5897589;22;45376;-59
2023/10/27 05:56:56;;;;;;;2.17;0.57;;;19.50;82.20;;;;;;5943971;22;45023;-59
2023/10/27 05:59:24;;;;;;;1.20;0.75;;;19.50;82.30;;;;;;5946688;22;46573;-59
2023/10/27 06:01:54;;;;;;;2.75;0.80;;;19.60;82.40;;;;;;5964665;22;44909;-58
2023/10/27 06:04:36;;;;;;;2.40;0.90;;;19.60;82.50;;;;;;5952661;22;45143;-59
2023/10/27 06:09:52;;;;;;;0.70;0.47;;;19.50;82.40;;;;;;5941986;22;45165;-59
2023/10/27 06:12:34;;;;;;;1.75;0.82;;;19.50;82.50;;;;;;5981789;22;45187;-59
2023/10/27 06:15:31;;;;;;;2.08;0.77;;;19.50;82.50;;;;;;5987465;22;44906;-59
2023/10/27 06:18:06;;;;;;;1.65;0.73;;;19.50;82.50;;;;;;5951896;22;45060;-59
2023/10/27 06:20:34;;;;;;;1.20;0.70;;;19.50;82.60;;;;;;5957623;22;46272;-58
2023/10/27 06:23:17;;;;;;;2.67;0.93;;;19.50;82.60;;;;;;5948104;22;45280;-58
2023/10/27 06:25:44;;;;;;;1.02;0.45;;;19.50;82.80;;;;;;5964489;22;45058;-58
2023/10/27 06:28:41;;;;;;;2.40;0.70;;;19.50;82.90;;;;;;5959014;22;45078;-57
2023/10/27 06:34:25;;;;;;;2.17;0.80;;;19.50;83.00;;;;;;5936551;22;45123;-58
2023/10/27 06:37:05;;;;;;;1.67;0.73;;;19.50;83.00;;;;;;5955339;22;45218;-58
2023/10/27 06:40:01;;;;;;;2.28;0.80;;;19.50;83.00;;;;;;5979474;22;44863;-58
2023/10/27 06:42:38;;;;;;;1.83;0.77;;;19.50;82.90;;;;;;5967214;22;46302;-59
2023/10/27 06:45:24;;;;;;;1.73;0.90;;;19.50;83.00;;;;;;5960702;22;45247;-58
2023/10/27 06:48:38;;;;;;;3.92;1.20;;;19.50;83.00;;;;;;5960843;22;45287;-59
2023/10/27 06:51:09;;;;;;;2.42;0.90;;;19.50;83.10;;;;;;5944577;22;45174;-58
2023/10/27 06:53:55;;;;;;;2.88;0.70;;;19.40;83.20;;;;;;5940753;22;45592;-58
2023/10/27 06:56:50;;;;;;;2.63;0.82;;;19.50;83.10;;;;;;5971299;22;45228;-58
2023/10/27 06:59:37;;;;;;;1.25;0.80;;;19.50;83.10;;;;;;5956627;22;45238;-58
2023/10/27 07:02:07;;;;;;;2.25;0.90;;;19.50;83.30;;;;;;5970527;22;45383;-59
2023/10/27 07:05:13;;;;;;;1.23;0.70;;;19.50;83.20;;;;;;5955291;22;46407;-59
2023/10/27 07:08:06;;;;;;;3.28;0.80;;;19.50;83.30;;;;;;5956862;22;44993;-58
2023/10/27 07:10:33;;;;;;;2.25;0.75;;;19.40;83.10;;;;;;5949662;22;45253;-59
2023/10/27 07:13:18;;;;;;;1.98;0.90;;;19.50;83.20;;;;;;5946473;22;45091;-59
2023/10/27 07:15:46;;;;;;;1.45;0.60;;;19.50;83.40;;;;;;5962570;22;46330;-59
2023/10/27 07:18:51;;;;;;;2.03;0.60;;;19.50;83.30;;;;;;5968927;22;45257;-59
2023/10/27 07:21:29;;;;;;;1.45;0.47;;;19.50;83.40;;;;;;5952155;22;45121;-59
2023/10/27 07:24:14;;;;;;;1.67;0.65;;;19.50;83.30;;;;;;5981737;22;44975;-59
2023/10/27 07:27:41;;;;;;;2.33;0.70;;;19.50;83.40;;;;;;5953682;22;46304;-59
2023/10/27 07:30:26;;;;;;;1.67;0.82;;;19.50;83.40;;;;;;5976592;22;45228;-59
2023/10/27 07:33:21;;;;;;;1.60;0.82;;;19.50;83.50;;;;;;5969570;22;45310;-59
2023/10/27 07:35:49;;;;;;;1.48;0.75;;;19.40;83.50;;;;;;5961170;22;45329;-59
2023/10/27 07:38:16;;;;;;;2.10;0.77;;;19.50;83.40;;;;;;5943837;22;46264;-59
2023/10/27 07:44:49;;;;;;;1.80;0.60;;;19.50;83.50;;;;;;5965247;22;45103;-59
2023/10/27 07:47:46;;;;;;;1.00;0.63;;;19.50;83.50;;;;;;5958836;22;45332;-59
2023/10/27 07:50:28;;;;;;;1.80;0.73;;;19.50;83.50;;;;;;5956909;22;47224;-57
2023/10/27 07:53:16;;;;;;;2.30;0.80;;;19.50;83.60;;;;;;5969190;22;45364;-57
2023/10/27 07:55:44;;;;;;;2.95;0.57;;;19.50;83.60;;;;;;5958604;22;45364;-58
2023/10/27 07:58:40;;;;;;;1.50;0.80;;;19.40;84.50;;;;;;5966116;22;45039;-57
2023/10/27 08:01:21;;;;;;;1.52;0.70;;;19.40;83.60;;;;;;5941402;22;45114;-58
2023/10/27 08:03:53;;;;;;;1.55;0.60;;;19.50;83.60;;;;;;5982008;22;45122;-56
2023/10/27 08:06:32;;;;;;;1.05;0.60;;;19.40;83.70;;;;;;5939153;22;45270;-57
2023/10/27 08:09:24;;;;;;;0.70;0.50;;;19.50;83.80;;;;;;5951906;22;44916;-57
2023/10/27 08:12:08;;;;;;;1.67;0.60;;;19.50;84.20;;;;;;5942767;22;46294;-57
2023/10/27 08:15:05;;;;;;;1.20;0.63;;;19.50;84.20;;;;;;5927674;22;45270;-57
2023/10/27 08:17:50;;;;;;;0.98;0.50;;;19.50;84.40;;;;;;5944616;22;45183;-58
2023/10/27 08:20:17;;;;;;;1.30;0.57;;;19.50;84.10;;;;;;5937574;22;45339;-56
2023/10/27 08:23:03;;;;;;;0.95;0.50;;;19.50;84.20;;;;;;5938074;22;46255;-57
2023/10/27 08:25:39;;;;;;;1.15;0.50;;;19.50;84.30;;;;;;5940781;22;45195;-57
2023/10/27 08:28:06;;;;;;;0.95;0.50;;;19.50;84.20;;;;;;5958480;22;45132;-57
2023/10/27 08:34:26;;;;;;;0.47;0.40;;;19.50;84.50;;;;;;5979113;22;45261;-57
2023/10/27 08:37:09;;;;;;;1.83;0.68;;;19.50;84.40;;;;;;5930634;22;45200;-58
2023/10/27 08:39:36;;;;;;;0.50;0.50;;;19.50;84.50;;;;;;5950678;22;45276;-58
2023/10/27 08:42:14;;;;;;;1.10;0.45;;;19.50;84.70;;;;;;5977112;22;45169;-58
2023/10/27 08:44:42;;;;;;;0.95;0.60;;;19.50;84.50;;;;;;5935107;22;46524;-58
2023/10/27 08:47:19;;;;;;;0.70;0.57;;;19.50;84.50;;;;;;5957387;22;45123;-58
2023/10/27 08:49:48;;;;;;;1.10;0.50;;;19.50;84.60;;;;;;5955744;22;45228;-57
2023/10/27 08:52:42;;;;;;;0.88;0.55;;;19.50;84.50;;;;;;5966220;22;45236;-57
2023/10/27 08:55:32;;;;;;;0.98;0.50;;;19.50;84.30;;;;;;5977989;22;45773;-57
2023/10/27 08:58:29;;;;;;;1.15;0.50;;;19.50;84.60;;;;;;5991965;22;45128;-56
2023/10/27 09:01:05;;;;;;;0.98;0.40;;;19.50;84.80;;;;;;5937386;22;45209;-57
2023/10/27 09:04:07;;;;;;;1.45;0.50;;;19.50;85.00;;;;;;5955596;22;45283;-56
2023/10/27 09:07:07;;;;;;;1.83;0.30;;;19.50;85.10;;;;;;5958915;22;46003;-57
2023/10/27 09:09:47;;;;;;;1.08;0.35;;;19.50;85.20;;;;;;5949036;22;45368;-57
2023/10/27 09:12:59;;;;;;;0.52;0.38;;;19.50;85.10;;;;;;5950069;22;45199;-58
2023/10/27 09:15:27;;;;;;;0.60;0.40;;;19.50;85.40;;;;;;5945401;22;45389;-58
2023/10/27 09:18:00;;;;;;;0.93;0.50;;;19.50;85.30;;;;;;5952517;22;46450;-58
2023/10/27 09:20:37;;;;;;;0.70;0.40;;;19.50;85.30;;;;;;5958833;22;45328;-58
2023/10/27 09:23:05;;;;;;;0.50;0.38;;;19.50;85.10;;;;;;5937858;22;45358;-58
2023/10/27 09:26:12;;;;;;;1.20;0.40;;;19.50;85.20;;;;;;5994429;22;45035;-58
2023/10/27 09:28:41;;;;;;;0.52;0.30;;;19.50;85.20;;;;;;5960167;22;46337;-58
2023/10/27 09:31:08;;;;;;;1.08;0.50;;;19.50;85.20;;;;;;5965984;22;45331;-58
2023/10/27 09:34:16;;;;;;;0.50;0.35;;;19.50;85.30;;;;;;5951059;22;45021;-58
2023/10/27 09:37:06;;;;;;;1.05;0.40;;;19.50;85.40;;;;;;5932267;22;45203;-58
2023/10/27 09:39:34;;;;;;;0.75;0.40;;;19.50;85.40;;;;;;5945999;22;47041;-58
2023/10/27 10:04:11;;;;;;;0.70;0.40;;;19.60;85.20;;;;;;6102427;22;44795;-60
2023/10/27 10:06:43;;;;;;;1.02;0.52;;;19.50;85.30;;;;;;6147567;22;46311;-60
2023/10/27 10:10:01;;;;;;;0.70;0.40;;;19.50;85.30;;;;;;6226029;22;44569;-60
2023/10/27 10:13:08;;;;;;;0.50;0.30;;;19.50;85.30;;;;;;6132684;22;44694;-60
2023/10/27 10:15:38;;;;;;;0.95;0.35;;;19.50;85.20;;;;;;6121374;22;44833;-60
2023/10/27 10:18:08;;;;;;;0.40;0.38;;;19.50;85.00;;;;;;6157289;22;45544;-60
2023/10/27 10:21:10;;;;;;;1.67;0.52;;;19.50;85.00;;;;;;6144109;22;44725;-60
2023/10/27 10:24:22;;;;;;;1.45;0.57;;;19.50;85.10;;;;;;6141438;22;44639;-60
2023/10/27 10:27:23;;;;;;;1.60;0.60;;;19.50;85.30;;;;;;6152063;22;44841;-60
2023/10/27 10:30:30;;;;;;;1.25;0.60;;;19.50;85.20;;;;;;6126621;22;46138;-60
2023/10/27 10:33:19;;;;;;;0.82;0.55;;;19.50;85.20;;;;;;6118953;22;44685;-60
2023/10/27 10:35:47;;;;;;;1.23;0.70;;;19.50;85.30;;;;;;6120125;22;44464;-60
2023/10/27 10:38:38;;;;;;;0.70;0.60;;;19.50;85.40;;;;;;6158254;22;44911;-60
2023/10/27 10:41:05;;;;;;;2.05;0.63;;;19.50;85.30;;;;;;6132273;22;45160;-60
2023/10/27 10:43:42;;;;;;;0.52;0.43;;;19.50;85.40;;;;;;6123479;22;44744;-60
2023/10/27 10:46:31;;;;;;;0.43;0.40;;;19.50;85.50;;;;;;6181187;22;44690;-60
2023/10/27 10:49:01;;;;;;;1.05;0.50;;;19.50;85.40;;;;;;6130781;22;44747;-60
2023/10/27 10:51:36;;;;;;;0.30;0.30;;;19.50;85.80;;;;;;6133468;22;45760;-60
2023/10/27 10:54:09;;;;;;;1.40;0.57;;;19.50;85.70;;;;;;6127136;22;44714;-60
2023/10/27 10:56:37;;;;;;;0.70;0.50;;;19.50;85.70;;;;;;6137417;22;44671;-60
2023/10/27 10:59:13;;;;;;;1.00;0.60;;;19.50;85.80;;;;;;6123475;22;44955;-60
2023/10/27 11:01:57;;;;;;;2.03;0.90;;;19.50;85.90;;;;;;6126677;22;45187;-60
2023/10/27 11:04:33;;;;;;;0.60;0.57;;;19.50;86.00;;;;;;6107199;22;44716;-57
2023/10/27 11:07:03;;;;;;;1.35;0.60;;;19.50;85.90;;;;;;6121732;22;44744;-57
2023/10/27 11:09:35;;;;;;;1.50;0.63;;;19.40;85.90;;;;;;6089027;22;45088;-58
2023/10/27 11:12:03;;;;;;;1.92;0.70;;;19.40;85.90;;;;;;6082631;22;46109;-58
2023/10/27 11:14:47;;;;;;;0.90;0.60;;;19.50;86.00;;;;;;6123945;22;44638;-58
2023/10/27 11:17:48;;;;;;;1.05;0.63;;;19.50;86.20;;;;;;6128067;22;44675;-59
2023/10/27 11:20:34;;;;;;;3.38;0.65;;;19.50;86.40;;;;;;6143009;22;44739;-59
2023/10/27 11:23:14;;;;;;;0.73;0.50;;;19.50;86.50;;;;;;6107465;22;46127;-59
2023/10/27 11:26:04;;;;;;;1.85;0.77;;;19.50;86.60;;;;;;6139287;22;44641;-59
2023/10/27 11:28:44;;;;;;;0.75;0.55;;;19.50;86.80;;;;;;6121346;22;44791;-59
2023/10/27 11:31:25;;;;;;;1.02;0.60;;;19.40;86.80;;;;;;6118554;22;44827;-59
2023/10/27 11:34:32;;;;;;;1.25;0.63;;;19.50;86.90;;;;;;6132099;22;46495;-59
2023/10/27 11:40:23;;;;;;;1.30;0.65;;;19.50;87.40;;;;;;6069866;22;44772;-59
2023/10/27 11:42:52;;;;;;;1.25;0.70;;;19.50;87.80;;;;;;6143446;22;44882;-59
2023/10/27 11:45:20;;;;;;;2.60;0.73;;;19.50;87.80;;;;;;6151766;22;45140;-59
2023/10/27 11:47:52;;;;;;;1.88;0.50;;;19.40;87.80;;;;;;6121559;22;44847;-59
2023/10/27 11:53:10;;;;;;;0.88;0.70;;;19.40;88.10;;;;;;6130306;22;44980;-59
2023/10/27 11:55:41;;;;;;;1.30;0.73;;;19.50;88.00;;;;;;6125130;22;45722;-60
2023/10/27 11:58:09;;;;;;;1.20;0.52;;;19.40;87.90;;;;;;6118645;22;44879;-59
2023/10/27 12:00:47;;;;;;;1.85;0.75;;;19.40;88.20;;;;;;6118583;22;44706;-59
2023/10/27 12:03:16;;;;;;;0.55;0.47;;;19.40;88.30;;;;;;6169041;22;44682;-59
2023/10/27 12:05:47;;;;;;;2.40;0.60;;;19.40;88.30;;;;;;6152041;22;46403;-59
2023/10/27 12:08:15;;;;;;;1.60;0.77;;;19.40;88.10;;;;;;6159316;22;44592;-59
2023/10/27 12:10:45;;;;;;;1.45;0.60;;;19.40;88.20;;;;;;6157602;22;44591;-59
2023/10/27 12:13:15;;;;;;;1.67;0.70;;;19.40;88.50;;;;;;6160975;22;44654;-59
2023/10/27 12:15:42;;;;;;;1.45;0.70;;;19.40;88.50;;;;;;6117765;22;45806;-59
2023/10/27 12:18:09;;;;;;;1.00;0.60;;;19.40;88.40;;;;;;6122545;22;44715;-59
2023/10/27 12:20:46;;;;;;;3.20;0.70;;;19.40;88.30;;;;;;6135892;22;44714;-59
2023/10/27 12:23:18;;;;;;;0.65;0.55;;;19.40;88.20;;;;;;6117869;22;44777;-59
2023/10/27 12:25:45;;;;;;;1.45;0.70;;;19.40;88.10;;;;;;6122712;22;46485;-59
2023/10/27 12:28:12;;;;;;;2.05;0.60;;;19.50;88.20;;;;;;6129942;22;44658;-60
2023/10/27 12:30:40;;;;;;;0.95;0.50;;;19.50;88.20;;;;;;6112520;22;44899;-59
2023/10/27 12:33:27;;;;;;;0.90;0.63;;;19.40;88.10;;;;;;6147285;22;44702;-59
2023/10/27 12:36:15;;;;;;;2.78;0.70;;;19.50;88.10;;;;;;6076558;22;45563;-58
2023/10/27 12:39:04;;;;;;;3.08;0.70;;;19.50;88.20;;;;;;6132969;22;44777;-58
2023/10/27 12:41:30;;;;;;;3.03;0.85;;;19.50;88.20;;;;;;6135841;22;45007;-59
2023/10/27 12:43:57;;;;;;;2.25;0.85;;;19.50;88.20;;;;;;6120716;22;44676;-58
2023/10/27 12:46:25;;;;;;;0.60;0.45;;;19.50;88.30;;;;;;6141832;22;45752;-58
2023/10/27 12:48:54;;;;;;;0.90;0.50;;;19.50;88.30;;;;;;6110121;22;44731;-59
2023/10/27 12:51:22;;;;;;;1.77;0.45;;;19.50;88.40;;;;;;6122947;22;44777;-59
2023/10/27 12:53:52;;;;;;;1.48;0.60;;;19.40;88.50;;;;;;6120406;22;44897;-59
2023/10/27 12:56:19;;;;;;;0.52;0.40;;;19.40;88.90;;;;;;6125824;22;46266;-59
2023/10/27 12:58:47;;;;;;;0.70;0.40;;;19.40;89.10;;;;;;6127658;22;44613;-59
2023/10/27 13:01:40;;;;;;;1.73;0.60;;;19.40;89.30;;;;;;6154941;22;44710;-59
2023/10/27 13:04:31;;;;;;;0.55;0.38;;;19.40;89.40;;;;;;6129754;22;44618;-59
2023/10/27 13:06:59;;;;;;;0.70;0.50;;;19.40;89.80;;;;;;6168939;22;46495;-59
2023/10/27 13:09:40;;;;;;;0.43;0.30;;;19.40;89.80;;;;;;6142973;22;44656;-59
2023/10/27 13:14:59;;;;;;;2.28;0.73;;;19.40;89.30;;;;;;6122358;22;44938;-59
2023/10/27 13:17:26;;;;;;;1.23;0.50;;;19.40;89.20;;;;;;6129491;22;46273;-59
2023/10/27 13:19:55;;;;;;;2.75;0.63;;;19.40;89.30;;;;;;6139858;22;44638;-59
2023/10/27 13:23:03;;;;;;;0.77;0.50;;;19.40;89.20;;;;;;6166057;22;44709;-59
2023/10/27 13:25:32;;;;;;;0.82;0.50;;;19.40;89.20;;;;;;6109818;22;44665;-59
2023/10/27 13:28:01;;;;;;;0.80;0.38;;;19.40;89.10;;;;;;6123630;22;46475;-59
2023/10/27 13:30:42;;;;;;;0.88;0.50;;;19.40;89.10;;;;;;6106397;22;44927;-59
2023/10/27 13:33:10;;;;;;;3.13;0.70;;;19.40;89.00;;;;;;6117533;22;44705;-59
2023/10/27 13:35:38;;;;;;;1.95;0.90;;;19.40;89.10;;;;;;6130358;22;44799;-59
2023/10/27 13:38:07;;;;;;;1.27;0.57;;;19.40;89.20;;;;;;6139826;22;45145;-59
2023/10/27 13:40:54;;;;;;;1.02;0.52;;;19.40;89.10;;;;;;6162452;22;44762;-59
2023/10/27 13:43:25;;;;;;;1.92;0.50;;;19.40;89.20;;;;;;6094150;22;44621;-59
2023/10/27 13:46:08;;;;;;;2.22;0.82;;;19.40;89.20;;;;;;6143096;22;44872;-59
2023/10/27 13:48:36;;;;;;;0.82;0.60;;;19.40;89.10;;;;;;6130756;22;46236;-59
2023/10/27 13:51:21;;;;;;;0.65;0.52;;;19.50;89.10;;;;;;6166693;22;44599;-59
2023/10/27 13:53:50;;;;;;;2.05;0.60;;;19.40;89.00;;;;;;6146324;22;44720;-59
2023/10/27 13:56:19;;;;;;;1.55;0.52;;;19.40;89.00;;;;;;6132666;22;44675;-59
2023/10/27 13:58:47;;;;;;;1.90;0.60;;;19.40;89.00;;;;;;6116325;22;46275;-59
2023/10/27 14:01:14;;;;;;;1.65;0.50;;;19.40;89.00;;;;;;6127788;22;44696;-60
2023/10/27 14:03:44;;;;;;;0.93;0.40;;;19.40;88.90;;;;;;6149456;22;44662;-59
2023/10/27 14:06:12;;;;;;;1.95;0.60;;;19.40;89.00;;;;;;6122687;22;45003;-59
2023/10/27 14:08:41;;;;;;;1.88;0.50;;;19.40;89.20;;;;;;6135753;22;45490;-60
2023/10/27 14:11:15;;;;;;;0.75;0.50;;;19.40;89.20;;;;;;6136032;22;44648;-59
2023/10/27 14:13:45;;;;;;;1.88;0.40;;;19.40;89.20;;;;;;6109395;22;44774;-59
2023/10/27 14:16:16;;;;;;;1.60;0.50;;;19.40;89.40;;;;;;6126310;22;44838;-60
2023/10/27 14:18:58;;;;;;;1.48;0.60;;;19.40;89.40;;;;;;6130709;22;46096;-60
2023/10/27 14:21:25;;;;;;;2.40;0.38;;;19.40;89.30;;;;;;6115456;22;44528;-59
2023/10/27 14:24:11;;;;;;;1.13;0.60;;;19.40;89.40;;;;;;6148516;22;44810;-59
2023/10/27 14:26:48;;;;;;;1.48;0.50;;;19.40;89.50;;;;;;6122415;22;44836;-59
2023/10/27 14:29:29;;;;;;;1.70;0.50;;;19.40;89.60;;;;;;6138006;22;45624;-59
2023/10/27 14:32:02;;;;;;;1.75;0.60;;;19.40;89.70;;;;;;6142927;22;44745;-58
2023/10/27 14:34:40;;;;;;;1.67;0.43;;;19.40;89.80;;;;;;6132497;22;44810;-58
2023/10/27 14:37:14;;;;;;;2.30;0.50;;;19.40;89.70;;;;;;6139272;22;44853;-58
2023/10/27 14:40:02;;;;;;;1.30;0.47;;;19.40;89.70;;;;;;6120754;22;45752;-59
2023/10/27 14:42:44;;;;;;;0.68;0.38;;;19.40;89.80;;;;;;6133209;22;44761;-58
2023/10/27 14:45:20;;;;;;;1.95;0.77;;;19.40;89.90;;;;;;6114940;22;44599;-59
2023/10/27 14:48:00;;;;;;;1.80;0.40;;;19.40;89.90;;;;;;6147425;22;44675;-59
2023/10/27 14:50:27;;;;;;;0.80;0.43;;;19.40;90.00;;;;;;6147015;22;45135;-59
2023/10/27 14:52:58;;;;;;;2.05;0.45;;;19.40;90.00;;;;;;6141526;22;44749;-59
2023/10/27 14:55:28;;;;;;;0.75;0.43;;;19.40;90.00;;;;;;6157014;22;44770;-59
2023/10/27 14:57:56;;;;;;;1.10;0.40;;;19.40;90.00;;;;;;6117822;22;44722;-58
2023/10/27 15:00:40;;;;;;;2.33;0.73;;;19.40;90.00;;;;;;6116147;22;45745;-58